createdAt,value
2022-09-18T00:02:40.955Z,3.10
2022-09-18T00:07:42.239Z,3.37
2022-09-18T00:12:43.510Z,2.93
2022-09-18T00:17:44.799Z,3.00
2022-09-18T00:22:46.423Z,3.10
2022-09-18T00:27:47.659Z,3.20
2022-09-18T00:32:48.794Z,3.47
2022-09-18T00:37:49.901Z,3.63
2022-09-18T00:42:51.118Z,3.00
2022-09-18T00:47:52.455Z,3.60
2022-09-18T00:52:59.059Z,3.47
2022-09-18T00:58:04.737Z,2.90
2022-09-18T01:03:05.877Z,3.03
2022-09-18T01:08:13.503Z,2.90
2022-09-18T01:13:33.738Z,2.57
2022-09-18T01:19:04.754Z,2.87
2022-09-18T01:24:38.386Z,3.33
2022-09-18T01:30:06.482Z,3.80
2022-09-18T01:35:40.702Z,2.83
2022-09-18T01:40:50.241Z,3.60
2022-09-18T01:45:55.550Z,3.43
2022-09-18T01:51:13.313Z,4.50
2022-09-18T01:56:38.302Z,3.03
2022-09-18T02:01:43.688Z,3.37
2022-09-18T02:06:55.736Z,3.70
2022-09-18T02:11:59.247Z,3.30
2022-09-18T02:17:07.957Z,3.53
2022-09-18T02:22:14.484Z,3.03
2022-09-18T02:27:17.234Z,3.23
2022-09-18T02:32:18.722Z,3.67
2022-09-18T02:38:05.158Z,3.00
2022-09-18T02:43:21.087Z,3.30
2022-09-18T02:48:48.880Z,3.03
2022-09-18T02:53:56.625Z,2.67
2022-09-18T02:59:05.417Z,3.23
2022-09-18T03:04:14.105Z,3.07
2022-09-18T03:09:36.527Z,3.20
2022-09-18T03:14:38.332Z,3.07
2022-09-18T03:19:39.538Z,3.47
2022-09-18T03:24:41.649Z,3.20
2022-09-18T03:29:44.482Z,4.03
2022-09-18T03:34:46.183Z,3.50
2022-09-18T03:39:48.042Z,4.00
2022-09-18T03:44:49.391Z,3.83
2022-09-18T03:49:55.315Z,4.20
2022-09-18T03:54:56.934Z,3.53
2022-09-18T04:00:16.854Z,3.93
2022-09-18T04:05:17.963Z,3.70
2022-09-18T04:10:51.004Z,3.77
2022-09-18T04:15:52.197Z,3.20
2022-09-18T04:20:53.588Z,3.80
2022-09-18T04:25:54.967Z,3.87
2022-09-18T04:30:59.896Z,3.83
2022-09-18T04:36:01.446Z,3.97
2022-09-18T04:41:03.094Z,3.57
2022-09-18T04:46:05.580Z,3.63
2022-09-18T04:51:07.071Z,4.27
2022-09-18T04:56:20.445Z,4.30
2022-09-18T05:01:24.571Z,4.40
2022-09-18T05:06:25.942Z,4.57
2022-09-18T05:11:28.327Z,5.03
2022-09-18T05:16:29.787Z,4.60
2022-09-18T05:21:50.714Z,4.97
2022-09-18T05:26:53.226Z,4.13
2022-09-18T05:31:56.437Z,4.30
2022-09-18T05:36:57.893Z,4.17
2022-09-18T05:41:59.063Z,4.90
2022-09-18T05:47:00.499Z,4.17
2022-09-18T05:52:02.355Z,4.00
2022-09-18T05:57:04.608Z,3.50
2022-09-18T06:02:09.559Z,4.30
2022-09-18T06:07:50.238Z,4.00
2022-09-18T06:13:02.158Z,4.73
2022-09-18T06:18:05.140Z,4.17
2022-09-18T06:23:07.870Z,3.40
2022-09-18T06:28:19.433Z,3.37
2022-09-18T06:33:20.639Z,3.23
2022-09-18T06:38:23.430Z,3.10
2022-09-18T06:43:25.968Z,3.10
2022-09-18T06:48:48.561Z,3.07
2022-09-18T06:53:49.766Z,3.00
2022-09-18T06:58:54.249Z,2.40
2022-09-18T07:03:55.966Z,2.43
2022-09-18T07:09:00.422Z,2.43
2022-09-18T07:14:34.753Z,3.17
2022-09-18T07:19:46.325Z,2.73
2022-09-18T07:24:49.595Z,2.50
2022-09-18T07:29:50.698Z,2.43
2022-09-18T07:34:53.477Z,2.00
2022-09-18T07:40:07.379Z,2.60
2022-09-18T07:45:27.166Z,2.33
2022-09-18T07:50:29.954Z,2.20
2022-09-18T07:55:34.094Z,2.10
2022-09-18T08:00:36.250Z,2.03
2022-09-18T08:05:39.114Z,1.90
2022-09-18T08:10:43.808Z,2.30
2022-09-18T08:16:09.181Z,2.13
2022-09-18T08:21:42.797Z,2.20
2022-09-18T08:26:46.525Z,1.90
2022-09-18T08:31:48.403Z,1.80
2022-09-18T08:36:51.198Z,2.20
2022-09-18T08:42:06.736Z,2.40
2022-09-18T08:47:19.622Z,2.28
2022-09-18T08:52:28.311Z,1.92
2022-09-18T08:57:45.786Z,2.50
2022-09-18T09:03:25.683Z,1.92
2022-09-18T09:08:33.302Z,1.80
2022-09-18T09:14:39.649Z,1.83
2022-09-18T09:20:05.681Z,1.75
2022-09-18T09:25:13.082Z,1.85
2022-09-18T09:30:22.002Z,1.60
2022-09-18T09:35:50.006Z,1.58
2022-09-18T09:40:53.978Z,1.83
2022-09-18T09:46:01.889Z,1.40
2022-09-18T09:51:18.486Z,1.65
2022-09-18T09:56:42.614Z,1.33
2022-09-18T10:02:09.880Z,1.60
2022-09-18T10:07:22.862Z,1.60
2022-09-18T10:12:39.214Z,1.45
2022-09-18T10:17:42.226Z,1.67
2022-09-18T10:22:45.945Z,1.90
2022-09-18T10:27:47.113Z,1.50
2022-09-18T10:32:48.579Z,1.48
2022-09-18T10:37:57.402Z,1.40
2022-09-18T10:43:05.815Z,1.40
2022-09-18T10:48:15.742Z,1.65
2022-09-18T10:53:23.702Z,1.25
2022-09-18T10:58:29.398Z,1.60
2022-09-18T11:03:58.839Z,1.88
2022-09-18T11:09:09.106Z,1.48
2022-09-18T11:14:24.902Z,1.40
2022-09-18T11:19:38.263Z,1.52
2022-09-18T11:24:48.221Z,1.30
2022-09-18T11:29:49.400Z,1.38
2022-09-18T11:34:54.534Z,1.27
2022-09-18T11:40:06.904Z,1.17
2022-09-18T11:45:50.146Z,1.23
2022-09-18T11:51:00.442Z,1.27
2022-09-18T11:56:12.042Z,1.38
2022-09-18T12:01:41.320Z,0.60
2022-09-18T12:07:15.660Z,0.82
2022-09-18T12:12:22.859Z,0.80
2022-09-18T12:17:40.353Z,0.68
2022-09-18T12:22:47.595Z,0.77
2022-09-18T12:28:27.709Z,0.77
2022-09-18T12:33:56.919Z,0.73
2022-09-18T12:39:17.550Z,0.80
2022-09-18T12:44:40.777Z,0.60
2022-09-18T12:50:13.676Z,0.88
2022-09-18T12:55:45.512Z,0.70
2022-09-18T13:00:49.501Z,0.90
2022-09-18T13:06:00.107Z,0.82
2022-09-18T13:11:08.767Z,1.25
2022-09-18T13:16:17.012Z,0.70
2022-09-18T13:21:27.486Z,1.02
2022-09-18T13:26:32.341Z,0.65
2022-09-18T13:31:35.124Z,0.85
2022-09-18T13:36:39.728Z,0.60
2022-09-18T13:41:44.007Z,0.40
2022-09-18T13:46:46.409Z,0.70
2022-09-18T13:51:47.797Z,0.60
2022-09-18T13:57:02.045Z,0.77
2022-09-18T14:02:03.419Z,0.60
2022-09-18T14:07:17.539Z,0.60
2022-09-18T14:12:20.078Z,0.50
2022-09-18T14:17:21.357Z,0.73
2022-09-18T14:22:31.320Z,0.70
2022-09-18T14:27:43.267Z,0.95
2022-09-18T14:33:05.114Z,0.85
2022-09-18T14:38:37.036Z,0.68
2022-09-18T14:43:39.451Z,0.57
2022-09-18T14:48:40.720Z,0.70
2022-09-18T14:53:45.154Z,0.80
2022-09-18T14:58:49.685Z,0.80
2022-09-18T15:03:52.485Z,0.70
2022-09-18T15:08:56.237Z,0.70
2022-09-18T15:13:57.546Z,0.60
2022-09-18T15:19:17.212Z,0.70
2022-09-18T15:24:22.409Z,1.20
2022-09-18T15:29:37.400Z,1.00
2022-09-18T15:34:48.160Z,0.82
2022-09-18T15:40:04.634Z,1.45
2022-09-18T15:45:06.311Z,1.10
2022-09-18T15:50:16.592Z,0.83
2022-09-18T15:55:26.491Z,0.97
2022-09-18T16:00:35.993Z,1.20
2022-09-18T16:05:52.654Z,1.10
2022-09-18T16:10:57.595Z,1.47
2022-09-18T16:16:11.712Z,1.60
2022-09-18T16:21:21.059Z,1.70
2022-09-18T16:26:30.085Z,2.00
2022-09-18T16:31:36.671Z,1.60
2022-09-18T16:36:40.993Z,1.50
2022-09-18T16:41:42.826Z,1.43
2022-09-18T16:46:53.869Z,1.57
2022-09-18T16:51:56.910Z,1.40
2022-09-18T16:57:09.572Z,1.50
2022-09-18T17:02:13.866Z,1.90
2022-09-18T17:07:15.004Z,1.27
2022-09-18T17:12:16.114Z,1.30
2022-09-18T17:17:17.465Z,1.57
2022-09-18T17:22:22.481Z,1.70
2022-09-18T17:27:25.195Z,1.00
2022-09-18T17:32:26.371Z,1.20
2022-09-18T17:37:28.660Z,1.10
2022-09-18T17:42:30.342Z,1.10
2022-09-18T17:47:31.705Z,1.03
2022-09-18T17:52:34.823Z,1.10
2022-09-18T17:57:37.418Z,1.10
2022-09-18T18:02:38.737Z,1.00
2022-09-18T18:07:39.844Z,1.20
2022-09-18T18:12:40.889Z,1.10
2022-09-18T18:17:42.310Z,0.67
2022-09-18T18:22:43.818Z,0.70
2022-09-18T18:27:45.097Z,1.03
2022-09-18T18:32:47.822Z,0.90
2022-09-18T18:37:49.789Z,1.40
2022-09-18T18:42:50.946Z,1.17
2022-09-18T18:48:00.943Z,1.50
2022-09-18T18:53:02.072Z,1.47
2022-09-18T18:58:03.362Z,1.30
2022-09-18T19:03:04.560Z,0.80
2022-09-18T19:08:06.341Z,0.97
2022-09-18T19:13:07.917Z,1.20
2022-09-18T19:18:09.373Z,1.20
2022-09-18T19:23:12.500Z,1.33
2022-09-18T19:28:27.331Z,2.13
2022-09-18T19:33:33.953Z,1.50
2022-09-18T19:38:36.354Z,1.50
2022-09-18T19:43:39.430Z,1.43
2022-09-18T19:48:42.230Z,1.93
2022-09-18T19:53:43.988Z,1.83
2022-09-18T19:58:49.421Z,1.70
2022-09-18T20:03:54.048Z,1.40
2022-09-18T20:08:55.520Z,1.30
2022-09-18T20:13:56.629Z,1.57
2022-09-18T20:18:57.826Z,1.90
2022-09-18T20:23:59.374Z,1.63
2022-09-18T20:29:00.815Z,1.50
2022-09-18T20:34:03.573Z,1.40
2022-09-18T20:39:04.945Z,1.80
2022-09-18T20:44:06.209Z,1.50
2022-09-18T20:49:07.472Z,1.37
2022-09-18T20:54:12.076Z,2.23
2022-09-18T20:59:15.853Z,1.50
2022-09-18T21:04:18.928Z,1.80
2022-09-18T21:09:20.074Z,1.60
2022-09-18T21:14:23.400Z,2.10
2022-09-18T21:19:26.505Z,2.13
2022-09-18T21:24:27.681Z,2.33
2022-09-18T21:29:29.187Z,2.80
2022-09-18T21:34:32.681Z,2.57
2022-09-18T21:39:34.777Z,3.10
2022-09-18T21:44:36.912Z,2.70
2022-09-18T21:49:37.994Z,2.97
2022-09-18T21:54:39.553Z,3.37
2022-09-18T21:59:40.662Z,3.40
2022-09-18T22:04:44.892Z,3.17
2022-09-18T22:09:46.114Z,3.20
2022-09-18T22:14:48.230Z,3.30
2022-09-18T22:19:49.665Z,3.97
2022-09-18T22:24:50.805Z,3.13
2022-09-18T22:29:51.882Z,3.90
2022-09-18T22:34:53.809Z,3.97
2022-09-18T22:39:55.145Z,3.07
2022-09-18T22:44:56.294Z,3.20
2022-09-18T22:49:57.532Z,3.23
2022-09-18T22:54:59.789Z,3.17
2022-09-18T23:00:01.226Z,3.10
2022-09-18T23:05:02.797Z,2.83
2022-09-18T23:10:04.406Z,2.77
2022-09-18T23:15:05.777Z,3.13
2022-09-18T23:20:07.253Z,2.83
2022-09-18T23:25:08.973Z,2.67
2022-09-18T23:30:10.668Z,3.17
2022-09-18T23:35:11.849Z,2.33
2022-09-18T23:40:13.393Z,3.20
2022-09-18T23:45:14.438Z,2.87
2022-09-18T23:50:15.684Z,2.83
2022-09-18T23:55:17.509Z,2.70
